Coronhach, Canada
Current Conditions -  °F | °C
As of 4:04 AM on Thursday 18 Dec 2014 (Local Time) from KOLF Reporting Station
Overcast Overcast  
Wind Chill: 24°   Ceiling: 800
Heat Index: 24°   Visibility: 10mi
Dew Point: 19°   Wind: 3mph
Humidity: 81%   Direction: 60°ENE
Pressure: 29.99"   Gusts: NA
Location:  49.11°N, 105.51°W
Report Text: KOLF 181004Z AUTO 06003KT 10SM BKN008 OVC012 M04/M07 A2999 RMK AO2 T10441072
Loading
Personal Weather Stations






























Interactive Weather Map New forecast layout! Learn more

10-Day Weather Forecast

Advertisements
Track Severe Weather on mobile